sensor_id;sensor_type;location;lat;lon;timestamp;temperature;humidity
55642;DHT22;41509;53.108;6.100;2022-08-11T00:01:48;18.50;99.90
55642;DHT22;41509;53.108;6.100;2022-08-11T00:04:16;18.50;99.90
55642;DHT22;41509;53.108;6.100;2022-08-11T00:06:45;18.40;99.90
55642;DHT22;41509;53.108;6.100;2022-08-11T00:09:15;18.50;99.90
55642;DHT22;41509;53.108;6.100;2022-08-11T00:11:47;18.40;99.90
55642;DHT22;41509;53.108;6.100;2022-08-11T00:16:51;18.40;99.90
55642;DHT22;41509;53.108;6.100;2022-08-11T00:19:23;18.40;99.90
55642;DHT22;41509;53.108;6.100;2022-08-11T00:21:49;18.40;99.90
55642;DHT22;41509;53.108;6.100;2022-08-11T00:24:15;18.30;99.90
55642;DHT22;41509;53.108;6.100;2022-08-11T00:26:47;18.40;99.90
55642;DHT22;41509;53.108;6.100;2022-08-11T00:29:13;18.30;99.90
55642;DHT22;41509;53.108;6.100;2022-08-11T00:31:44;18.30;99.90
55642;DHT22;41509;53.108;6.100;2022-08-11T00:34:11;18.20;99.90
55642;DHT22;41509;53.108;6.100;2022-08-11T00:39:13;18.20;99.90
55642;DHT22;41509;53.108;6.100;2022-08-11T00:49:50;18.10;99.90
55642;DHT22;41509;53.108;6.100;2022-08-11T00:55:26;18.10;99.90
55642;DHT22;41509;53.108;6.100;2022-08-11T01:10:06;17.90;99.90
55642;DHT22;41509;53.108;6.100;2022-08-11T01:15:48;17.90;99.90
55642;DHT22;41509;53.108;6.100;2022-08-11T01:24:19;17.80;99.90
55642;DHT22;41509;53.108;6.100;2022-08-11T01:35:39;17.70;99.90
55642;DHT22;41509;53.108;6.100;2022-08-11T01:38:18;17.70;99.90
55642;DHT22;41509;53.108;6.100;2022-08-11T01:49:28;17.60;99.90
55642;DHT22;41509;53.108;6.100;2022-08-11T01:52:18;17.60;99.90
55642;DHT22;41509;53.108;6.100;2022-08-11T01:58:04;17.50;99.90
55642;DHT22;41509;53.108;6.100;2022-08-11T02:00:44;17.50;99.90
55642;DHT22;41509;53.108;6.100;2022-08-11T02:03:27;17.50;99.90
55642;DHT22;41509;53.108;6.100;2022-08-11T02:09:44;17.50;99.90
55642;DHT22;41509;53.108;6.100;2022-08-11T02:18:33;17.40;99.90
55642;DHT22;41509;53.108;6.100;2022-08-11T02:20:44;17.40;99.90
55642;DHT22;41509;53.108;6.100;2022-08-11T02:24:02;17.30;99.90
55642;DHT22;41509;53.108;6.100;2022-08-11T02:26:46;17.30;99.90
55642;DHT22;41509;53.108;6.100;2022-08-11T02:32:06;17.20;99.90
55642;DHT22;41509;53.108;6.100;2022-08-11T02:43:22;17.10;99.90
55642;DHT22;41509;53.108;6.100;2022-08-11T02:46:15;17.10;99.90
55642;DHT22;41509;53.108;6.100;2022-08-11T02:57:55;17.00;99.90
55642;DHT22;41509;53.108;6.100;2022-08-11T03:00:25;17.10;99.90
55642;DHT22;41509;53.108;6.100;2022-08-11T03:03:06;17.00;99.90
55642;DHT22;41509;53.108;6.100;2022-08-11T03:05:56;17.00;99.90
55642;DHT22;41509;53.108;6.100;2022-08-11T03:08:52;17.00;99.90
55642;DHT22;41509;53.108;6.100;2022-08-11T03:14:30;17.00;99.90
55642;DHT22;41509;53.108;6.100;2022-08-11T03:18:30;17.00;99.90
55642;DHT22;41509;53.108;6.100;2022-08-11T03:23:24;16.90;99.90
55642;DHT22;41509;53.108;6.100;2022-08-11T03:28:35;16.80;99.90
55642;DHT22;41509;53.108;6.100;2022-08-11T03:33:51;16.80;99.90
55642;DHT22;41509;53.108;6.100;2022-08-11T03:39:41;16.80;99.90
55642;DHT22;41509;53.108;6.100;2022-08-11T03:48:29;16.70;99.90
55642;DHT22;41509;53.108;6.100;2022-08-11T03:59:28;16.70;99.90
55642;DHT22;41509;53.108;6.100;2022-08-11T04:11:20;16.60;99.90
55642;DHT22;41509;53.108;6.100;2022-08-11T04:30:41;16.50;99.90
55642;DHT22;41509;53.108;6.100;2022-08-11T04:33:29;16.50;99.90
55642;DHT22;41509;53.108;6.100;2022-08-11T05:10:02;16.50;99.90
55642;DHT22;41509;53.108;6.100;2022-08-11T05:12:48;16.60;99.90
55642;DHT22;41509;53.108;6.100;2022-08-11T05:15:20;16.60;99.90
55642;DHT22;41509;53.108;6.100;2022-08-11T05:18:19;16.60;99.90
55642;DHT22;41509;53.108;6.100;2022-08-11T05:21:09;16.60;99.90
55642;DHT22;41509;53.108;6.100;2022-08-11T05:23:57;16.70;99.90
55642;DHT22;41509;53.108;6.100;2022-08-11T05:26:48;16.80;99.90
55642;DHT22;41509;53.108;6.100;2022-08-11T05:32:22;16.90;99.90
55642;DHT22;41509;53.108;6.100;2022-08-11T05:35:07;16.90;99.90
55642;DHT22;41509;53.108;6.100;2022-08-11T05:37:52;17.00;99.90
55642;DHT22;41509;53.108;6.100;2022-08-11T05:40:38;17.00;99.90
55642;DHT22;41509;53.108;6.100;2022-08-11T05:43:29;17.10;99.90
55642;DHT22;41509;53.108;6.100;2022-08-11T05:46:13;17.10;99.90
55642;DHT22;41509;53.108;6.100;2022-08-11T05:48:57;17.20;99.90
55642;DHT22;41509;53.108;6.100;2022-08-11T05:51:43;17.20;99.90
55642;DHT22;41509;53.108;6.100;2022-08-11T05:54:28;17.30;99.90
55642;DHT22;41509;53.108;6.100;2022-08-11T05:57:21;17.30;99.90
55642;DHT22;41509;53.108;6.100;2022-08-11T05:59:49;17.30;99.90
55642;DHT22;41509;53.108;6.100;2022-08-11T06:02:15;17.40;99.90
55642;DHT22;41509;53.108;6.100;2022-08-11T06:04:42;17.30;99.90
55642;DHT22;41509;53.108;6.100;2022-08-11T06:07:11;17.50;99.90
55642;DHT22;41509;53.108;6.100;2022-08-11T06:09:49;17.60;99.90
55642;DHT22;41509;53.108;6.100;2022-08-11T06:12:23;17.60;99.90
55642;DHT22;41509;53.108;6.100;2022-08-11T06:14:55;17.60;99.90
55642;DHT22;41509;53.108;6.100;2022-08-11T06:17:26;17.60;99.90
55642;DHT22;41509;53.108;6.100;2022-08-11T06:20:01;17.70;99.90
55642;DHT22;41509;53.108;6.100;2022-08-11T06:22:27;17.70;99.90
55642;DHT22;41509;53.108;6.100;2022-08-11T06:24:58;17.80;99.90
55642;DHT22;41509;53.108;6.100;2022-08-11T06:27:25;17.80;99.90
55642;DHT22;41509;53.108;6.100;2022-08-11T06:29:53;17.80;99.90
55642;DHT22;41509;53.108;6.100;2022-08-11T06:32:31;17.90;99.90
55642;DHT22;41509;53.108;6.100;2022-08-11T06:35:28;17.90;99.90
55642;DHT22;41509;53.108;6.100;2022-08-11T06:38:08;18.00;99.90
55642;DHT22;41509;53.108;6.100;2022-08-11T06:46:14;18.10;99.90
55642;DHT22;41509;53.108;6.100;2022-08-11T06:48:38;18.20;99.90
55642;DHT22;41509;53.108;6.100;2022-08-11T06:51:06;18.20;99.90
55642;DHT22;41509;53.108;6.100;2022-08-11T06:56:06;18.30;99.90
55642;DHT22;41509;53.108;6.100;2022-08-11T06:58:51;18.40;99.90
55642;DHT22;41509;53.108;6.100;2022-08-11T07:02:06;18.50;99.90
55642;DHT22;41509;53.108;6.100;2022-08-11T07:04:48;18.50;99.90
55642;DHT22;41509;53.108;6.100;2022-08-11T07:10:32;18.70;99.90
55642;DHT22;41509;53.108;6.100;2022-08-11T07:13:18;18.70;99.90
55642;DHT22;41509;53.108;6.100;2022-08-11T07:16:05;18.80;99.90
55642;DHT22;41509;53.108;6.100;2022-08-11T07:18:34;18.90;99.90
55642;DHT22;41509;53.108;6.100;2022-08-11T07:21:31;18.90;99.90
55642;DHT22;41509;53.108;6.100;2022-08-11T07:24:22;19.10;99.90
55642;DHT22;41509;53.108;6.100;2022-08-11T07:27:14;19.10;99.90
55642;DHT22;41509;53.108;6.100;2022-08-11T07:30:04;19.30;99.90
55642;DHT22;41509;53.108;6.100;2022-08-11T07:32:32;19.30;99.90
55642;DHT22;41509;53.108;6.100;2022-08-11T07:35:05;19.40;99.90
55642;DHT22;41509;53.108;6.100;2022-08-11T07:37:33;19.50;99.90
55642;DHT22;41509;53.108;6.100;2022-08-11T07:40:00;19.50;99.90
55642;DHT22;41509;53.108;6.100;2022-08-11T07:42:30;19.60;99.90
55642;DHT22;41509;53.108;6.100;2022-08-11T07:45:02;19.70;99.90
55642;DHT22;41509;53.108;6.100;2022-08-11T07:47:48;19.80;99.90
55642;DHT22;41509;53.108;6.100;2022-08-11T07:50:33;19.90;99.90
55642;DHT22;41509;53.108;6.100;2022-08-11T07:53:20;20.00;99.90
55642;DHT22;41509;53.108;6.100;2022-08-11T07:55:48;20.10;99.90
55642;DHT22;41509;53.108;6.100;2022-08-11T07:58:15;20.10;99.90
55642;DHT22;41509;53.108;6.100;2022-08-11T08:01:00;20.10;99.90
55642;DHT22;41509;53.108;6.100;2022-08-11T08:03:45;20.30;99.90
55642;DHT22;41509;53.108;6.100;2022-08-11T08:06:31;20.40;99.90
55642;DHT22;41509;53.108;6.100;2022-08-11T08:09:17;20.40;99.90
55642;DHT22;41509;53.108;6.100;2022-08-11T08:12:02;20.60;99.90
55642;DHT22;41509;53.108;6.100;2022-08-11T08:14:47;20.60;99.90
55642;DHT22;41509;53.108;6.100;2022-08-11T08:17:33;20.70;99.90
55642;DHT22;41509;53.108;6.100;2022-08-11T08:20:24;20.90;99.90
55642;DHT22;41509;53.108;6.100;2022-08-11T08:22:55;21.00;99.90
55642;DHT22;41509;53.108;6.100;2022-08-11T08:25:29;21.00;99.90
55642;DHT22;41509;53.108;6.100;2022-08-11T08:27:57;21.10;99.90
55642;DHT22;41509;53.108;6.100;2022-08-11T08:30:25;21.20;99.90
55642;DHT22;41509;53.108;6.100;2022-08-11T08:33:18;21.30;99.90
55642;DHT22;41509;53.108;6.100;2022-08-11T08:35:45;21.40;99.90
55642;DHT22;41509;53.108;6.100;2022-08-11T08:38:13;21.50;99.90
55642;DHT22;41509;53.108;6.100;2022-08-11T08:40:41;21.60;99.90
55642;DHT22;41509;53.108;6.100;2022-08-11T08:43:10;21.70;99.90
55642;DHT22;41509;53.108;6.100;2022-08-11T08:45:40;21.80;99.90
55642;DHT22;41509;53.108;6.100;2022-08-11T08:48:15;21.90;99.90
55642;DHT22;41509;53.108;6.100;2022-08-11T08:50:49;21.90;99.90
55642;DHT22;41509;53.108;6.100;2022-08-11T08:53:39;22.10;99.90
55642;DHT22;41509;53.108;6.100;2022-08-11T08:56:06;22.20;99.90
55642;DHT22;41509;53.108;6.100;2022-08-11T08:58:35;22.30;99.90
55642;DHT22;41509;53.108;6.100;2022-08-11T09:01:02;22.30;99.90
55642;DHT22;41509;53.108;6.100;2022-08-11T09:03:28;22.50;99.90
55642;DHT22;41509;53.108;6.100;2022-08-11T09:05:54;22.60;99.90
55642;DHT22;41509;53.108;6.100;2022-08-11T09:08:21;22.70;99.90
55642;DHT22;41509;53.108;6.100;2022-08-11T09:10:48;22.90;99.90
55642;DHT22;41509;53.108;6.100;2022-08-11T09:13:34;22.90;99.90
55642;DHT22;41509;53.108;6.100;2022-08-11T09:16:04;23.00;99.90
55642;DHT22;41509;53.108;6.100;2022-08-11T09:18:31;23.10;99.90
55642;DHT22;41509;53.108;6.100;2022-08-11T09:20:57;23.20;99.90
55642;DHT22;41509;53.108;6.100;2022-08-11T09:23:24;23.30;99.90
55642;DHT22;41509;53.108;6.100;2022-08-11T09:26:09;23.40;99.90
55642;DHT22;41509;53.108;6.100;2022-08-11T09:28:54;23.50;99.90
55642;DHT22;41509;53.108;6.100;2022-08-11T09:31:21;23.60;99.90
55642;DHT22;41509;53.108;6.100;2022-08-11T09:33:47;23.60;99.90
55642;DHT22;41509;53.108;6.100;2022-08-11T09:36:17;23.70;99.90
55642;DHT22;41509;53.108;6.100;2022-08-11T09:39:04;23.80;99.90
55642;DHT22;41509;53.108;6.100;2022-08-11T09:41:49;23.90;99.90
55642;DHT22;41509;53.108;6.100;2022-08-11T09:44:15;24.00;99.90
55642;DHT22;41509;53.108;6.100;2022-08-11T09:46:59;24.20;99.90
55642;DHT22;41509;53.108;6.100;2022-08-11T09:49:26;24.30;99.90
55642;DHT22;41509;53.108;6.100;2022-08-11T09:51:52;24.40;99.90
55642;DHT22;41509;53.108;6.100;2022-08-11T09:54:19;24.40;99.90
55642;DHT22;41509;53.108;6.100;2022-08-11T09:56:47;24.50;99.90
55642;DHT22;41509;53.108;6.100;2022-08-11T09:59:31;24.60;99.90
55642;DHT22;41509;53.108;6.100;2022-08-11T10:01:59;24.80;99.90
55642;DHT22;41509;53.108;6.100;2022-08-11T10:04:32;24.90;99.90
55642;DHT22;41509;53.108;6.100;2022-08-11T10:07:02;25.00;99.90
55642;DHT22;41509;53.108;6.100;2022-08-11T10:12:07;25.20;99.90
55642;DHT22;41509;53.108;6.100;2022-08-11T10:14:38;25.30;99.90
55642;DHT22;41509;53.108;6.100;2022-08-11T10:17:23;25.40;99.90
55642;DHT22;41509;53.108;6.100;2022-08-11T10:19:49;25.50;99.90
55642;DHT22;41509;53.108;6.100;2022-08-11T10:22:17;25.50;99.90
55642;DHT22;41509;53.108;6.100;2022-08-11T10:25:21;25.60;99.90
55642;DHT22;41509;53.108;6.100;2022-08-11T10:28:07;25.70;99.90
55642;DHT22;41509;53.108;6.100;2022-08-11T10:30:34;25.80;99.90
55642;DHT22;41509;53.108;6.100;2022-08-11T10:33:19;25.80;99.90
55642;DHT22;41509;53.108;6.100;2022-08-11T10:36:04;25.90;99.90
55642;DHT22;41509;53.108;6.100;2022-08-11T10:38:32;26.00;99.90
55642;DHT22;41509;53.108;6.100;2022-08-11T10:40:59;26.10;99.90
55642;DHT22;41509;53.108;6.100;2022-08-11T10:43:44;26.20;99.90
55642;DHT22;41509;53.108;6.100;2022-08-11T10:46:11;26.30;99.90
55642;DHT22;41509;53.108;6.100;2022-08-11T10:48:57;26.40;99.90
55642;DHT22;41509;53.108;6.100;2022-08-11T10:51:27;26.50;99.90
55642;DHT22;41509;53.108;6.100;2022-08-11T10:54:14;26.60;99.90
55642;DHT22;41509;53.108;6.100;2022-08-11T10:56:59;26.70;99.90
55642;DHT22;41509;53.108;6.100;2022-08-11T10:59:44;26.80;99.90
55642;DHT22;41509;53.108;6.100;2022-08-11T11:02:13;26.80;99.90
55642;DHT22;41509;53.108;6.100;2022-08-11T11:07:21;26.90;99.90
55642;DHT22;41509;53.108;6.100;2022-08-11T11:09:56;27.00;99.90
55642;DHT22;41509;53.108;6.100;2022-08-11T11:15:18;27.10;99.90
55642;DHT22;41509;53.108;6.100;2022-08-11T11:18:18;27.20;99.90
55642;DHT22;41509;53.108;6.100;2022-08-11T11:23:31;27.40;99.60
55642;DHT22;41509;53.108;6.100;2022-08-11T11:26:19;27.50;99.10
55642;DHT22;41509;53.108;6.100;2022-08-11T11:37:09;27.80;94.40
55642;DHT22;41509;53.108;6.100;2022-08-11T11:39:40;27.90;93.60
55642;DHT22;41509;53.108;6.100;2022-08-11T11:42:08;28.00;92.60
55642;DHT22;41509;53.108;6.100;2022-08-11T11:44:37;28.10;92.00
55642;DHT22;41509;53.108;6.100;2022-08-11T11:47:03;28.10;90.90
55642;DHT22;41509;53.108;6.100;2022-08-11T11:49:30;28.20;90.00
55642;DHT22;41509;53.108;6.100;2022-08-11T11:52:05;28.30;87.10
55642;DHT22;41509;53.108;6.100;2022-08-11T11:54:33;28.30;86.30
55642;DHT22;41509;53.108;6.100;2022-08-11T11:57:02;28.40;84.00
55642;DHT22;41509;53.108;6.100;2022-08-11T11:59:50;28.50;82.30
55642;DHT22;41509;53.108;6.100;2022-08-11T12:02:36;28.60;81.60
55642;DHT22;41509;53.108;6.100;2022-08-11T12:05:04;28.70;82.00
55642;DHT22;41509;53.108;6.100;2022-08-11T12:07:30;28.70;80.20
55642;DHT22;41509;53.108;6.100;2022-08-11T12:10:16;28.80;78.60
55642;DHT22;41509;53.108;6.100;2022-08-11T12:12:43;28.90;76.30
55642;DHT22;41509;53.108;6.100;2022-08-11T12:15:29;29.00;75.30
55642;DHT22;41509;53.108;6.100;2022-08-11T12:17:55;29.10;75.60
55642;DHT22;41509;53.108;6.100;2022-08-11T12:20:22;29.30;74.10
55642;DHT22;41509;53.108;6.100;2022-08-11T12:22:48;29.30;71.70
55642;DHT22;41509;53.108;6.100;2022-08-11T12:25:34;29.40;70.90
55642;DHT22;41509;53.108;6.100;2022-08-11T12:28:19;29.50;69.30
55642;DHT22;41509;53.108;6.100;2022-08-11T12:30:49;29.60;69.10
55642;DHT22;41509;53.108;6.100;2022-08-11T12:33:15;29.60;68.20
55642;DHT22;41509;53.108;6.100;2022-08-11T12:35:42;29.70;67.90
55642;DHT22;41509;53.108;6.100;2022-08-11T12:38:09;29.80;67.90
55642;DHT22;41509;53.108;6.100;2022-08-11T12:40:36;29.90;66.30
55642;DHT22;41509;53.108;6.100;2022-08-11T12:43:22;30.00;65.70
55642;DHT22;41509;53.108;6.100;2022-08-11T12:46:15;30.00;66.30
55642;DHT22;41509;53.108;6.100;2022-08-11T12:48:48;30.10;65.90
55642;DHT22;41509;53.108;6.100;2022-08-11T12:51:36;30.20;65.20
55642;DHT22;41509;53.108;6.100;2022-08-11T12:57:23;30.30;63.80
55642;DHT22;41509;53.108;6.100;2022-08-11T13:00:09;30.40;64.10
55642;DHT22;41509;53.108;6.100;2022-08-11T13:02:54;30.40;63.80
55642;DHT22;41509;53.108;6.100;2022-08-11T13:05:40;30.50;62.90
55642;DHT22;41509;53.108;6.100;2022-08-11T13:08:07;30.50;62.10
55642;DHT22;41509;53.108;6.100;2022-08-11T13:10:33;30.60;61.70
55642;DHT22;41509;53.108;6.100;2022-08-11T13:13:18;30.60;60.10
55642;DHT22;41509;53.108;6.100;2022-08-11T13:15:47;30.60;59.60
55642;DHT22;41509;53.108;6.100;2022-08-11T13:18:18;30.70;59.90
55642;DHT22;41509;53.108;6.100;2022-08-11T13:20:51;30.80;58.90
55642;DHT22;41509;53.108;6.100;2022-08-11T13:23:17;30.80;58.40
55642;DHT22;41509;53.108;6.100;2022-08-11T13:25:44;30.90;57.90
55642;DHT22;41509;53.108;6.100;2022-08-11T13:28:10;30.90;57.40
55642;DHT22;41509;53.108;6.100;2022-08-11T13:30:37;30.90;57.20
55642;DHT22;41509;53.108;6.100;2022-08-11T13:33:22;31.00;57.30
55642;DHT22;41509;53.108;6.100;2022-08-11T13:35:50;31.00;57.20
55642;DHT22;41509;53.108;6.100;2022-08-11T13:38:18;31.10;56.30
55642;DHT22;41509;53.108;6.100;2022-08-11T13:40:44;31.10;56.80
55642;DHT22;41509;53.108;6.100;2022-08-11T13:43:13;31.20;56.40
55642;DHT22;41509;53.108;6.100;2022-08-11T13:45:41;31.10;55.80
55642;DHT22;41509;53.108;6.100;2022-08-11T13:50:44;31.30;56.90
55642;DHT22;41509;53.108;6.100;2022-08-11T13:53:30;31.30;56.70
55642;DHT22;41509;53.108;6.100;2022-08-11T13:55:57;31.30;56.30
55642;DHT22;41509;53.108;6.100;2022-08-11T13:58:25;31.40;55.50
55642;DHT22;41509;53.108;6.100;2022-08-11T14:00:52;31.40;55.10
55642;DHT22;41509;53.108;6.100;2022-08-11T14:03:26;31.50;54.70
55642;DHT22;41509;53.108;6.100;2022-08-11T14:05:55;31.50;54.40
55642;DHT22;41509;53.108;6.100;2022-08-11T14:08:26;31.50;54.60
55642;DHT22;41509;53.108;6.100;2022-08-11T14:11:00;31.50;54.70
55642;DHT22;41509;53.108;6.100;2022-08-11T14:13:45;31.50;53.90
55642;DHT22;41509;53.108;6.100;2022-08-11T14:16:15;31.50;54.10
55642;DHT22;41509;53.108;6.100;2022-08-11T14:18:46;31.50;53.60
55642;DHT22;41509;53.108;6.100;2022-08-11T14:21:15;31.50;54.00
55642;DHT22;41509;53.108;6.100;2022-08-11T14:24:01;31.60;53.80
55642;DHT22;41509;53.108;6.100;2022-08-11T14:26:29;31.60;53.50
55642;DHT22;41509;53.108;6.100;2022-08-11T14:29:10;31.60;53.60
55642;DHT22;41509;53.108;6.100;2022-08-11T14:31:45;31.70;53.50
55642;DHT22;41509;53.108;6.100;2022-08-11T14:34:11;31.70;53.70
55642;DHT22;41509;53.108;6.100;2022-08-11T14:36:44;31.70;54.20
55642;DHT22;41509;53.108;6.100;2022-08-11T14:39:14;31.80;54.10
55642;DHT22;41509;53.108;6.100;2022-08-11T14:41:47;31.80;53.40
55642;DHT22;41509;53.108;6.100;2022-08-11T14:44:35;31.90;53.30
55642;DHT22;41509;53.108;6.100;2022-08-11T14:47:20;31.90;53.00
55642;DHT22;41509;53.108;6.100;2022-08-11T14:49:48;31.90;53.10
55642;DHT22;41509;53.108;6.100;2022-08-11T14:52:17;32.00;52.80
55642;DHT22;41509;53.108;6.100;2022-08-11T14:54:47;32.00;52.80
55642;DHT22;41509;53.108;6.100;2022-08-11T14:57:36;32.00;52.20
55642;DHT22;41509;53.108;6.100;2022-08-11T15:00:04;32.00;52.50
55642;DHT22;41509;53.108;6.100;2022-08-11T15:02:36;32.10;52.60
55642;DHT22;41509;53.108;6.100;2022-08-11T15:05:21;32.10;52.20
55642;DHT22;41509;53.108;6.100;2022-08-11T15:07:48;32.10;52.40
55642;DHT22;41509;53.108;6.100;2022-08-11T15:10:16;32.10;53.70
55642;DHT22;41509;53.108;6.100;2022-08-11T15:12:43;32.10;55.10
55642;DHT22;41509;53.108;6.100;2022-08-11T15:15:11;32.00;55.40
55642;DHT22;41509;53.108;6.100;2022-08-11T15:17:57;32.00;56.70
55642;DHT22;41509;53.108;6.100;2022-08-11T15:20:25;32.00;56.70
55642;DHT22;41509;53.108;6.100;2022-08-11T15:23:10;31.90;56.60
55642;DHT22;41509;53.108;6.100;2022-08-11T15:28:33;31.90;56.40
55642;DHT22;41509;53.108;6.100;2022-08-11T15:31:21;31.90;56.40
55642;DHT22;41509;53.108;6.100;2022-08-11T15:34:09;31.80;56.40
55642;DHT22;41509;53.108;6.100;2022-08-11T15:36:58;31.70;56.40
55642;DHT22;41509;53.108;6.100;2022-08-11T15:42:37;31.70;55.90
55642;DHT22;41509;53.108;6.100;2022-08-11T15:45:24;31.70;55.70
55642;DHT22;41509;53.108;6.100;2022-08-11T15:48:11;31.70;55.30
55642;DHT22;41509;53.108;6.100;2022-08-11T15:50:41;31.70;54.90
55642;DHT22;41509;53.108;6.100;2022-08-11T15:53:26;31.60;55.00
55642;DHT22;41509;53.108;6.100;2022-08-11T15:55:54;31.60;55.30
55642;DHT22;41509;53.108;6.100;2022-08-11T15:58:22;31.50;55.20
55642;DHT22;41509;53.108;6.100;2022-08-11T16:01:09;31.60;55.60
55642;DHT22;41509;53.108;6.100;2022-08-11T16:03:59;31.50;56.00
55642;DHT22;41509;53.108;6.100;2022-08-11T16:06:44;31.50;55.00
55642;DHT22;41509;53.108;6.100;2022-08-11T16:09:13;31.40;54.90
55642;DHT22;41509;53.108;6.100;2022-08-11T16:11:41;31.40;54.90
55642;DHT22;41509;53.108;6.100;2022-08-11T16:14:10;31.30;54.20
55642;DHT22;41509;53.108;6.100;2022-08-11T16:16:55;31.30;54.00
55642;DHT22;41509;53.108;6.100;2022-08-11T16:19:24;31.20;54.10
55642;DHT22;41509;53.108;6.100;2022-08-11T16:21:52;31.10;54.40
55642;DHT22;41509;53.108;6.100;2022-08-11T16:24:19;31.00;54.60
55642;DHT22;41509;53.108;6.100;2022-08-11T16:26:47;30.80;54.80
55642;DHT22;41509;53.108;6.100;2022-08-11T16:29:15;30.80;55.00
55642;DHT22;41509;53.108;6.100;2022-08-11T16:31:42;30.70;55.10
55642;DHT22;41509;53.108;6.100;2022-08-11T16:34:30;30.50;55.20
55642;DHT22;41509;53.108;6.100;2022-08-11T16:37:15;30.40;55.20
55642;DHT22;41509;53.108;6.100;2022-08-11T16:39:59;30.30;55.40
55642;DHT22;41509;53.108;6.100;2022-08-11T16:42:25;30.10;55.70
55642;DHT22;41509;53.108;6.100;2022-08-11T16:45:10;30.00;56.00
55642;DHT22;41509;53.108;6.100;2022-08-11T16:48:02;29.90;55.80
55642;DHT22;41509;53.108;6.100;2022-08-11T16:50:29;29.80;56.10
55642;DHT22;41509;53.108;6.100;2022-08-11T16:52:55;29.60;56.10
55642;DHT22;41509;53.108;6.100;2022-08-11T16:55:21;29.60;56.40
55642;DHT22;41509;53.108;6.100;2022-08-11T16:57:47;29.50;56.70
55642;DHT22;41509;53.108;6.100;2022-08-11T17:00:33;29.40;57.20
55642;DHT22;41509;53.108;6.100;2022-08-11T17:03:00;29.20;57.50
55642;DHT22;41509;53.108;6.100;2022-08-11T17:05:52;29.10;57.90
55642;DHT22;41509;53.108;6.100;2022-08-11T17:08:50;29.00;58.40
55642;DHT22;41509;53.108;6.100;2022-08-11T17:11:39;28.80;58.50
55642;DHT22;41509;53.108;6.100;2022-08-11T17:14:54;28.70;59.40
55642;DHT22;41509;53.108;6.100;2022-08-11T17:17:36;28.60;60.40
55642;DHT22;41509;53.108;6.100;2022-08-11T17:20:06;28.50;61.00
55642;DHT22;41509;53.108;6.100;2022-08-11T17:22:38;28.30;61.40
55642;DHT22;41509;53.108;6.100;2022-08-11T17:25:25;28.20;62.10
55642;DHT22;41509;53.108;6.100;2022-08-11T17:27:53;28.20;62.80
55642;DHT22;41509;53.108;6.100;2022-08-11T17:30:19;28.10;63.60
55642;DHT22;41509;53.108;6.100;2022-08-11T17:32:49;28.00;64.20
55642;DHT22;41509;53.108;6.100;2022-08-11T17:35:36;27.90;64.90
55642;DHT22;41509;53.108;6.100;2022-08-11T17:38:21;27.80;65.70
55642;DHT22;41509;53.108;6.100;2022-08-11T17:40:56;27.70;66.20
55642;DHT22;41509;53.108;6.100;2022-08-11T17:43:42;27.60;66.20
55642;DHT22;41509;53.108;6.100;2022-08-11T17:46:28;27.50;66.30
55642;DHT22;41509;53.108;6.100;2022-08-11T17:49:14;27.40;66.50
55642;DHT22;41509;53.108;6.100;2022-08-11T17:51:43;27.30;67.10
55642;DHT22;41509;53.108;6.100;2022-08-11T17:54:29;27.20;67.60
55642;DHT22;41509;53.108;6.100;2022-08-11T17:57:14;27.10;68.40
55642;DHT22;41509;53.108;6.100;2022-08-11T18:00:02;27.00;69.10
55642;DHT22;41509;53.108;6.100;2022-08-11T18:02:30;26.90;69.90
55642;DHT22;41509;53.108;6.100;2022-08-11T18:05:32;26.80;70.20
55642;DHT22;41509;53.108;6.100;2022-08-11T18:08:02;26.70;70.80
55642;DHT22;41509;53.108;6.100;2022-08-11T18:10:48;26.60;71.50
55642;DHT22;41509;53.108;6.100;2022-08-11T18:13:36;26.50;72.70
55642;DHT22;41509;53.108;6.100;2022-08-11T18:16:21;26.50;73.70
55642;DHT22;41509;53.108;6.100;2022-08-11T18:19:06;26.40;75.00
55642;DHT22;41509;53.108;6.100;2022-08-11T18:21:54;26.30;76.10
55642;DHT22;41509;53.108;6.100;2022-08-11T18:24:49;26.20;77.40
55642;DHT22;41509;53.108;6.100;2022-08-11T18:27:35;26.10;79.40
55642;DHT22;41509;53.108;6.100;2022-08-11T18:30:22;26.10;80.70
55642;DHT22;41509;53.108;6.100;2022-08-11T18:33:08;26.00;82.10
55642;DHT22;41509;53.108;6.100;2022-08-11T18:35:58;25.90;83.50
55642;DHT22;41509;53.108;6.100;2022-08-11T18:38:45;25.80;85.40
55642;DHT22;41509;53.108;6.100;2022-08-11T18:41:35;25.80;86.90
55642;DHT22;41509;53.108;6.100;2022-08-11T18:44:24;25.70;88.60
55642;DHT22;41509;53.108;6.100;2022-08-11T18:47:10;25.60;90.20
55642;DHT22;41509;53.108;6.100;2022-08-11T18:49:57;25.50;90.70
55642;DHT22;41509;53.108;6.100;2022-08-11T18:52:43;25.40;91.60
55642;DHT22;41509;53.108;6.100;2022-08-11T18:55:29;25.30;93.30
55642;DHT22;41509;53.108;6.100;2022-08-11T18:58:16;25.30;93.20
55642;DHT22;41509;53.108;6.100;2022-08-11T19:01:08;25.20;93.70
55642;DHT22;41509;53.108;6.100;2022-08-11T19:03:56;25.10;94.60
55642;DHT22;41509;53.108;6.100;2022-08-11T19:06:41;25.10;95.10
55642;DHT22;41509;53.108;6.100;2022-08-11T19:09:27;25.00;96.00
55642;DHT22;41509;53.108;6.100;2022-08-11T19:12:13;24.90;97.00
55642;DHT22;41509;53.108;6.100;2022-08-11T19:15:00;24.80;97.50
55642;DHT22;41509;53.108;6.100;2022-08-11T19:17:45;24.80;97.90
55642;DHT22;41509;53.108;6.100;2022-08-11T19:20:31;24.70;98.50
55642;DHT22;41509;53.108;6.100;2022-08-11T19:23:23;24.60;99.10
55642;DHT22;41509;53.108;6.100;2022-08-11T19:26:09;24.50;99.60
55642;DHT22;41509;53.108;6.100;2022-08-11T19:28:56;24.40;99.90
55642;DHT22;41509;53.108;6.100;2022-08-11T19:31:42;24.30;99.90
55642;DHT22;41509;53.108;6.100;2022-08-11T19:34:28;24.20;99.90
55642;DHT22;41509;53.108;6.100;2022-08-11T19:37:13;24.20;99.90
55642;DHT22;41509;53.108;6.100;2022-08-11T19:40:05;24.10;99.90
55642;DHT22;41509;53.108;6.100;2022-08-11T19:42:50;24.00;99.90
55642;DHT22;41509;53.108;6.100;2022-08-11T19:45:37;23.90;99.90
55642;DHT22;41509;53.108;6.100;2022-08-11T19:48:22;23.80;99.90
55642;DHT22;41509;53.108;6.100;2022-08-11T19:51:06;23.70;99.90
55642;DHT22;41509;53.108;6.100;2022-08-11T19:53:51;23.70;99.90
55642;DHT22;41509;53.108;6.100;2022-08-11T19:56:36;23.60;99.90
55642;DHT22;41509;53.108;6.100;2022-08-11T19:59:31;23.60;99.90
55642;DHT22;41509;53.108;6.100;2022-08-11T20:02:37;23.50;99.90
55642;DHT22;41509;53.108;6.100;2022-08-11T20:05:22;23.40;99.90
55642;DHT22;41509;53.108;6.100;2022-08-11T20:08:10;23.40;99.90
55642;DHT22;41509;53.108;6.100;2022-08-11T20:10:56;23.30;99.90
55642;DHT22;41509;53.108;6.100;2022-08-11T20:13:42;23.30;99.90
55642;DHT22;41509;53.108;6.100;2022-08-11T20:16:27;23.20;99.90
55642;DHT22;41509;53.108;6.100;2022-08-11T20:19:12;23.20;99.90